sensor_id;sensor_type;location;lat;lon;timestamp;pressure;altitude;pressure_sealevel;temperature;humidity
7052;BME280;3567;52.444;13.556;2022-08-19T00:02:04;100608.63;;;20.91;100.00
7052;BME280;3567;52.444;13.556;2022-08-19T00:04:33;100625.16;;;20.95;100.00
7052;BME280;3567;52.444;13.556;2022-08-19T00:07:02;100622.94;;;20.97;100.00
7052;BME280;3567;52.444;13.556;2022-08-19T00:09:28;100610.44;;;20.96;100.00
7052;BME280;3567;52.444;13.556;2022-08-19T00:11:54;100611.03;;;20.92;100.00
7052;BME280;3567;52.444;13.556;2022-08-19T00:14:20;100607.00;;;20.90;100.00
7052;BME280;3567;52.444;13.556;2022-08-19T00:16:48;100614.06;;;20.91;100.00
7052;BME280;3567;52.444;13.556;2022-08-19T00:19:15;100614.06;;;20.91;100.00
7052;BME280;3567;52.444;13.556;2022-08-19T00:21:41;100611.66;;;20.89;100.00
7052;BME280;3567;52.444;13.556;2022-08-19T00:24:08;100601.56;;;20.90;100.00
7052;BME280;3567;52.444;13.556;2022-08-19T00:26:35;100610.03;;;20.88;100.00
7052;BME280;3567;52.444;13.556;2022-08-19T00:29:01;100586.94;;;20.86;100.00
7052;BME280;3567;52.444;13.556;2022-08-19T00:31:26;100587.22;;;20.84;100.00
7052;BME280;3567;52.444;13.556;2022-08-19T00:33:53;100584.00;;;20.82;100.00
7052;BME280;3567;52.444;13.556;2022-08-19T00:36:19;100588.44;;;20.78;100.00
7052;BME280;3567;52.444;13.556;2022-08-19T00:38:45;100578.94;;;20.76;100.00
7052;BME280;3567;52.444;13.556;2022-08-19T00:41:13;100570.59;;;20.72;100.00
7052;BME280;3567;52.444;13.556;2022-08-19T00:43:40;100564.13;;;20.68;100.00
7052;BME280;3567;52.444;13.556;2022-08-19T00:46:06;100572.06;;;20.64;100.00
7052;BME280;3567;52.444;13.556;2022-08-19T00:48:33;100580.53;;;20.63;100.00
7052;BME280;3567;52.444;13.556;2022-08-19T00:50:59;100577.28;;;20.61;100.00
7052;BME280;3567;52.444;13.556;2022-08-19T00:53:27;100595.84;;;20.59;100.00
7052;BME280;3567;52.444;13.556;2022-08-19T00:55:55;100605.13;;;20.58;100.00
7052;BME280;3567;52.444;13.556;2022-08-19T00:58:24;100612.19;;;20.59;100.00
7052;BME280;3567;52.444;13.556;2022-08-19T01:00:52;100611.38;;;20.58;100.00
7052;BME280;3567;52.444;13.556;2022-08-19T01:03:19;100605.34;;;20.61;100.00
7052;BME280;3567;52.444;13.556;2022-08-19T01:05:47;100611.59;;;20.62;100.00
7052;BME280;3567;52.444;13.556;2022-08-19T01:08:14;100625.47;;;20.60;100.00
7052;BME280;3567;52.444;13.556;2022-08-19T01:10:46;100617.63;;;20.59;100.00
7052;BME280;3567;52.444;13.556;2022-08-19T01:13:15;100630.72;;;20.57;100.00
7052;BME280;3567;52.444;13.556;2022-08-19T01:15:47;100632.91;;;20.55;100.00
7052;BME280;3567;52.444;13.556;2022-08-19T01:18:16;100625.44;;;20.47;100.00
7052;BME280;3567;52.444;13.556;2022-08-19T01:20:43;100616.91;;;20.34;100.00
7052;BME280;3567;52.444;13.556;2022-08-19T01:23:09;100625.25;;;20.24;100.00
7052;BME280;3567;52.444;13.556;2022-08-19T01:25:48;100614.59;;;20.09;100.00
7052;BME280;3567;52.444;13.556;2022-08-19T01:28:22;100608.19;;;20.00;100.00
7052;BME280;3567;52.444;13.556;2022-08-19T01:30:48;100581.66;;;19.92;100.00
7052;BME280;3567;52.444;13.556;2022-08-19T01:33:14;100557.28;;;19.86;100.00
7052;BME280;3567;52.444;13.556;2022-08-19T01:35:40;100571.78;;;19.82;100.00
7052;BME280;3567;52.444;13.556;2022-08-19T01:38:09;100572.13;;;19.75;100.00
7052;BME280;3567;52.444;13.556;2022-08-19T01:40:37;100549.63;;;19.70;100.00
7052;BME280;3567;52.444;13.556;2022-08-19T01:43:04;100541.56;;;19.65;100.00
7052;BME280;3567;52.444;13.556;2022-08-19T01:45:32;100540.28;;;19.57;100.00
7052;BME280;3567;52.444;13.556;2022-08-19T01:47:58;100537.13;;;19.50;100.00
7052;BME280;3567;52.444;13.556;2022-08-19T01:50:25;100529.06;;;19.45;100.00
7052;BME280;3567;52.444;13.556;2022-08-19T01:52:51;100535.88;;;19.42;100.00
7052;BME280;3567;52.444;13.556;2022-08-19T01:55:19;100522.59;;;19.41;100.00
7052;BME280;3567;52.444;13.556;2022-08-19T01:57:52;100502.47;;;19.42;100.00
7052;BME280;3567;52.444;13.556;2022-08-19T02:00:22;100495.34;;;19.46;100.00
7052;BME280;3567;52.444;13.556;2022-08-19T02:02:48;100507.03;;;19.46;100.00
7052;BME280;3567;52.444;13.556;2022-08-19T02:05:13;100508.31;;;19.49;100.00
7052;BME280;3567;52.444;13.556;2022-08-19T02:07:40;100508.31;;;19.49;100.00
7052;BME280;3567;52.444;13.556;2022-08-19T02:10:10;100513.75;;;19.49;100.00
7052;BME280;3567;52.444;13.556;2022-08-19T02:12:36;100506.72;;;19.48;100.00
7052;BME280;3567;52.444;13.556;2022-08-19T02:15:03;100509.97;;;19.50;100.00
7052;BME280;3567;52.444;13.556;2022-08-19T02:17:29;100520.53;;;19.51;100.00
7052;BME280;3567;52.444;13.556;2022-08-19T02:19:55;100531.09;;;19.53;100.00
7052;BME280;3567;52.444;13.556;2022-08-19T02:22:22;100526.19;;;19.55;100.00
7052;BME280;3567;52.444;13.556;2022-08-19T02:24:47;100513.41;;;19.55;100.00
7052;BME280;3567;52.444;13.556;2022-08-19T02:27:13;100517.44;;;19.58;100.00
7052;BME280;3567;52.444;13.556;2022-08-19T02:29:39;100504.97;;;19.57;100.00
7052;BME280;3567;52.444;13.556;2022-08-19T02:32:04;100501.75;;;19.55;100.00
7052;BME280;3567;52.444;13.556;2022-08-19T02:34:30;100500.72;;;19.51;100.00
7052;BME280;3567;52.444;13.556;2022-08-19T02:36:55;100506.16;;;19.51;100.00
7052;BME280;3567;52.444;13.556;2022-08-19T02:39:21;100499.09;;;19.50;100.00
7052;BME280;3567;52.444;13.556;2022-08-19T02:41:46;100499.91;;;19.50;100.00
7052;BME280;3567;52.444;13.556;2022-08-19T02:44:11;100511.03;;;19.49;100.00
7052;BME280;3567;52.444;13.556;2022-08-19T02:46:37;100517.00;;;19.51;100.00
7052;BME280;3567;52.444;13.556;2022-08-19T02:49:05;100529.50;;;19.52;100.00
7052;BME280;3567;52.444;13.556;2022-08-19T02:51:37;100524.06;;;19.52;100.00
7052;BME280;3567;52.444;13.556;2022-08-19T02:54:04;100514.28;;;19.51;100.00
7052;BME280;3567;52.444;13.556;2022-08-19T02:56:30;100518.63;;;19.52;100.00
7052;BME280;3567;52.444;13.556;2022-08-19T02:58:57;100512.09;;;19.53;100.00
7052;BME280;3567;52.444;13.556;2022-08-19T03:01:28;100498.50;;;19.53;100.00
7052;BME280;3567;52.444;13.556;2022-08-19T03:03:55;100499.59;;;19.52;100.00
7052;BME280;3567;52.444;13.556;2022-08-19T03:06:21;100513.19;;;19.52;100.00
7052;BME280;3567;52.444;13.556;2022-08-19T03:08:48;100517.00;;;19.51;100.00
7052;BME280;3567;52.444;13.556;2022-08-19T03:11:20;100514.81;;;19.53;100.00
7052;BME280;3567;52.444;13.556;2022-08-19T03:13:47;100515.59;;;19.53;100.00
7052;BME280;3567;52.444;13.556;2022-08-19T03:16:16;100512.09;;;19.53;100.00
7052;BME280;3567;52.444;13.556;2022-08-19T03:18:42;100499.59;;;19.52;100.00
7052;BME280;3567;52.444;13.556;2022-08-19T03:21:08;100499.59;;;19.52;100.00
7052;BME280;3567;52.444;13.556;2022-08-19T03:23:34;100495.78;;;19.53;100.00
7052;BME280;3567;52.444;13.556;2022-08-19T03:26:04;100482.50;;;19.51;100.00
7052;BME280;3567;52.444;13.556;2022-08-19T03:28:30;100492.56;;;19.51;100.00
7052;BME280;3567;52.444;13.556;2022-08-19T03:31:09;100490.66;;;19.51;100.00
7052;BME280;3567;52.444;13.556;2022-08-19T03:33:35;100493.06;;;19.53;100.00
7052;BME280;3567;52.444;13.556;2022-08-19T03:36:19;100490.94;;;19.50;100.00
7052;BME280;3567;52.444;13.556;2022-08-19T03:38:51;100489.31;;;19.49;100.00
7052;BME280;3567;52.444;13.556;2022-08-19T03:41:20;100500.19;;;19.49;100.00
7052;BME280;3567;52.444;13.556;2022-08-19T03:43:47;100513.25;;;19.47;100.00
7052;BME280;3567;52.444;13.556;2022-08-19T03:46:16;100506.72;;;19.48;100.00
7052;BME280;3567;52.444;13.556;2022-08-19T03:48:43;100514.38;;;19.46;100.00
7052;BME280;3567;52.444;13.556;2022-08-19T03:51:21;100516.56;;;19.44;100.00
7052;BME280;3567;52.444;13.556;2022-08-19T03:53:47;100507.59;;;19.43;100.00
7052;BME280;3567;52.444;13.556;2022-08-19T03:56:13;100499.75;;;19.42;100.00
7052;BME280;3567;52.444;13.556;2022-08-19T03:58:39;100499.44;;;19.43;100.00
7052;BME280;3567;52.444;13.556;2022-08-19T04:01:10;100515.75;;;19.43;100.00
7052;BME280;3567;52.444;13.556;2022-08-19T04:03:36;100514.13;;;19.42;100.00
7052;BME280;3567;52.444;13.556;2022-08-19T04:06:15;100517.66;;;19.43;100.00
7052;BME280;3567;52.444;13.556;2022-08-19T04:08:42;100521.97;;;19.44;100.00
7052;BME280;3567;52.444;13.556;2022-08-19T04:11:13;100510.03;;;19.45;100.00
7052;BME280;3567;52.444;13.556;2022-08-19T04:13:39;100505.69;;;19.44;100.00
7052;BME280;3567;52.444;13.556;2022-08-19T04:16:06;100513.34;;;19.42;100.00
7052;BME280;3567;52.444;13.556;2022-08-19T04:18:33;100518.47;;;19.43;100.00
7052;BME280;3567;52.444;13.556;2022-08-19T04:20:59;100521.72;;;19.45;100.00
7052;BME280;3567;52.444;13.556;2022-08-19T04:23:24;100527.34;;;19.49;100.00
7052;BME280;3567;52.444;13.556;2022-08-19T04:25:50;100529.78;;;19.50;100.00
7052;BME280;3567;52.444;13.556;2022-08-19T04:28:15;100526.28;;;19.50;100.00
7052;BME280;3567;52.444;13.556;2022-08-19T04:30:44;100525.66;;;19.53;100.00
7052;BME280;3567;52.444;13.556;2022-08-19T04:33:14;100524.56;;;19.54;100.00
7052;BME280;3567;52.444;13.556;2022-08-19T04:35:44;100525.91;;;19.56;100.00
7052;BME280;3567;52.444;13.556;2022-08-19T04:38:11;100525.31;;;19.59;100.00
7052;BME280;3567;52.444;13.556;2022-08-19T04:40:44;100515.25;;;19.60;100.00
7052;BME280;3567;52.444;13.556;2022-08-19T04:43:30;100516.28;;;19.64;100.00
7052;BME280;3567;52.444;13.556;2022-08-19T04:45:55;100517.34;;;19.68;100.00
7052;BME280;3567;52.444;13.556;2022-08-19T04:48:21;100516.22;;;19.69;100.00
7052;BME280;3567;52.444;13.556;2022-08-19T04:50:55;100512.13;;;19.72;100.00
7052;BME280;3567;52.444;13.556;2022-08-19T04:53:35;100510.72;;;19.74;100.00
7052;BME280;3567;52.444;13.556;2022-08-19T04:56:06;100509.59;;;19.75;100.00
7052;BME280;3567;52.444;13.556;2022-08-19T04:58:33;100510.13;;;19.77;100.00
7052;BME280;3567;52.444;13.556;2022-08-19T05:00:59;100509.31;;;19.77;100.00
7052;BME280;3567;52.444;13.556;2022-08-19T05:03:27;100506.31;;;19.78;100.00
7052;BME280;3567;52.444;13.556;2022-08-19T05:06:04;100509.31;;;19.77;100.00
7052;BME280;3567;52.444;13.556;2022-08-19T05:08:30;100505.81;;;19.76;100.00
7052;BME280;3567;52.444;13.556;2022-08-19T05:10:56;100507.91;;;19.79;100.00
7052;BME280;3567;52.444;13.556;2022-08-19T05:13:22;100498.16;;;19.78;100.00
7052;BME280;3567;52.444;13.556;2022-08-19T05:15:56;100500.56;;;19.80;100.00
7052;BME280;3567;52.444;13.556;2022-08-19T05:18:22;100493.22;;;19.80;100.00
7052;BME280;3567;52.444;13.556;2022-08-19T05:21:11;100488.59;;;19.81;100.00
7052;BME280;3567;52.444;13.556;2022-08-19T05:23:57;100479.34;;;19.82;100.00
7052;BME280;3567;52.444;13.556;2022-08-19T05:26:23;100491.03;;;19.82;100.00
7052;BME280;3567;52.444;13.556;2022-08-19T05:28:48;100488.31;;;19.82;100.00
7052;BME280;3567;52.444;13.556;2022-08-19T05:31:14;100483.94;;;19.81;100.00
7052;BME280;3567;52.444;13.556;2022-08-19T05:33:39;100475.53;;;19.83;100.00
7052;BME280;3567;52.444;13.556;2022-08-19T05:36:05;100483.88;;;19.86;100.00
7052;BME280;3567;52.444;13.556;2022-08-19T05:38:33;100483.78;;;19.92;100.00
7052;BME280;3567;52.444;13.556;2022-08-19T05:40:58;100491.06;;;19.96;100.00
7052;BME280;3567;52.444;13.556;2022-08-19T05:43:24;100494.00;;;20.00;100.00
7052;BME280;3567;52.444;13.556;2022-08-19T05:45:49;100496.94;;;20.03;100.00
7052;BME280;3567;52.444;13.556;2022-08-19T05:48:15;100501.19;;;20.09;100.00
7052;BME280;3567;52.444;13.556;2022-08-19T05:50:42;100496.47;;;20.15;100.00
7052;BME280;3567;52.444;13.556;2022-08-19T05:53:09;100501.81;;;20.20;100.00
7052;BME280;3567;52.444;13.556;2022-08-19T05:55:35;100504.66;;;20.29;100.00
7052;BME280;3567;52.444;13.556;2022-08-19T05:58:03;100496.63;;;20.37;100.00
7052;BME280;3567;52.444;13.556;2022-08-19T06:00:28;100506.09;;;20.40;100.00
7052;BME280;3567;52.444;13.556;2022-08-19T06:02:56;100510.72;;;20.39;100.00
7052;BME280;3567;52.444;13.556;2022-08-19T06:05:24;100507.19;;;20.39;100.00
7052;BME280;3567;52.444;13.556;2022-08-19T06:07:50;100507.19;;;20.39;100.00
7052;BME280;3567;52.444;13.556;2022-08-19T06:10:15;100520.22;;;20.42;100.00
7052;BME280;3567;52.444;13.556;2022-08-19T06:13:03;100521.81;;;20.43;100.00
7052;BME280;3567;52.444;13.556;2022-08-19T06:15:30;100522.63;;;20.44;100.00
7052;BME280;3567;52.444;13.556;2022-08-19T06:17:56;100512.25;;;20.46;100.00
7052;BME280;3567;52.444;13.556;2022-08-19T06:20:22;100508.94;;;20.49;100.00
7052;BME280;3567;52.444;13.556;2022-08-19T06:22:48;100519.75;;;20.54;100.00
7052;BME280;3567;52.444;13.556;2022-08-19T06:25:15;100513.91;;;20.60;100.00
7052;BME280;3567;52.444;13.556;2022-08-19T06:27:41;100512.19;;;20.64;100.00
7052;BME280;3567;52.444;13.556;2022-08-19T06:30:07;100509.88;;;20.72;100.00
7052;BME280;3567;52.444;13.556;2022-08-19T06:32:32;100505.44;;;20.76;100.00
7052;BME280;3567;52.444;13.556;2022-08-19T06:34:58;100506.78;;;20.78;100.00
7052;BME280;3567;52.444;13.556;2022-08-19T06:37:23;100504.75;;;20.84;100.00
7052;BME280;3567;52.444;13.556;2022-08-19T06:39:49;100509.31;;;20.88;100.00
7052;BME280;3567;52.444;13.556;2022-08-19T06:42:16;100514.13;;;20.91;100.00
7052;BME280;3567;52.444;13.556;2022-08-19T06:44:45;100513.53;;;20.95;100.00
7052;BME280;3567;52.444;13.556;2022-08-19T06:47:14;100528.16;;;20.99;100.00
7052;BME280;3567;52.444;13.556;2022-08-19T06:49:40;100531.28;;;21.06;100.00
7052;BME280;3567;52.444;13.556;2022-08-19T06:52:06;100537.09;;;21.13;100.00
7052;BME280;3567;52.444;13.556;2022-08-19T06:54:31;100536.50;;;21.16;100.00
7052;BME280;3567;52.444;13.556;2022-08-19T06:56:58;100535.72;;;21.15;100.00
7052;BME280;3567;52.444;13.556;2022-08-19T06:59:27;100545.69;;;21.20;100.00
7052;BME280;3567;52.444;13.556;2022-08-19T07:01:55;100551.16;;;21.20;100.00
7052;BME280;3567;52.444;13.556;2022-08-19T07:04:29;100555.56;;;21.16;100.00
7052;BME280;3567;52.444;13.556;2022-08-19T07:07:09;100554.56;;;21.12;100.00
7052;BME280;3567;52.444;13.556;2022-08-19T07:09:39;100546.72;;;21.10;100.00
7052;BME280;3567;52.444;13.556;2022-08-19T07:12:07;100541.53;;;21.09;100.00
7052;BME280;3567;52.444;13.556;2022-08-19T07:14:33;100542.06;;;21.11;100.00
7052;BME280;3567;52.444;13.556;2022-08-19T07:17:04;100536.63;;;21.11;100.00
7052;BME280;3567;52.444;13.556;2022-08-19T07:19:30;100535.19;;;21.13;100.00
7052;BME280;3567;52.444;13.556;2022-08-19T07:21:57;100526.72;;;21.15;100.00
7052;BME280;3567;52.444;13.556;2022-08-19T07:24:26;100536.50;;;21.16;100.00
7052;BME280;3567;52.444;13.556;2022-08-19T07:26:54;100539.94;;;21.22;100.00
7052;BME280;3567;52.444;13.556;2022-08-19T07:29:21;100543.47;;;21.22;100.00
7052;BME280;3567;52.444;13.556;2022-08-19T07:31:54;100542.56;;;21.27;100.00
7052;BME280;3567;52.444;13.556;2022-08-19T07:34:22;100558.50;;;21.33;100.00
7052;BME280;3567;52.444;13.556;2022-08-19T07:36:48;100564.88;;;21.42;100.00
7052;BME280;3567;52.444;13.556;2022-08-19T07:39:21;100565.25;;;21.50;100.00
7052;BME280;3567;52.444;13.556;2022-08-19T07:41:47;100567.66;;;21.51;100.00
7052;BME280;3567;52.444;13.556;2022-08-19T07:44:14;100575.44;;;21.58;100.00
7052;BME280;3567;52.444;13.556;2022-08-19T07:46:46;100580.66;;;21.68;100.00
7052;BME280;3567;52.444;13.556;2022-08-19T07:49:13;100580.53;;;21.73;100.00
7052;BME280;3567;52.444;13.556;2022-08-19T07:51:49;100575.91;;;21.74;100.00
7052;BME280;3567;52.444;13.556;2022-08-19T07:54:15;100580.31;;;21.83;100.00
7052;BME280;3567;52.444;13.556;2022-08-19T07:56:40;100575.25;;;21.90;100.00
7052;BME280;3567;52.444;13.556;2022-08-19T07:59:06;100575.25;;;21.90;100.00
7052;BME280;3567;52.444;13.556;2022-08-19T08:01:32;100576.25;;;21.94;100.00
7052;BME280;3567;52.444;13.556;2022-08-19T08:03:58;100586.22;;;21.99;100.00
7052;BME280;3567;52.444;13.556;2022-08-19T08:06:42;100582.16;;;22.10;100.00
7052;BME280;3567;52.444;13.556;2022-08-19T08:09:30;100579.88;;;22.26;100.00
7052;BME280;3567;52.444;13.556;2022-08-19T08:12:05;100595.38;;;22.39;100.00
7052;BME280;3567;52.444;13.556;2022-08-19T08:14:43;100597.06;;;22.49;100.00
7052;BME280;3567;52.444;13.556;2022-08-19T08:17:10;100605.28;;;22.58;100.00
7052;BME280;3567;52.444;13.556;2022-08-19T08:19:37;100608.88;;;22.67;100.00
7052;BME280;3567;52.444;13.556;2022-08-19T08:22:03;100603.94;;;22.78;100.00
7052;BME280;3567;52.444;13.556;2022-08-19T08:24:31;100605.00;;;22.90;100.00
7052;BME280;3567;52.444;13.556;2022-08-19T08:26:58;100606.03;;;23.03;100.00
7052;BME280;3567;52.444;13.556;2022-08-19T08:29:26;100599.97;;;23.15;100.00
7052;BME280;3567;52.444;13.556;2022-08-19T08:31:52;100601.13;;;23.31;100.00
7052;BME280;3567;52.444;13.556;2022-08-19T08:34:19;100603.44;;;23.46;100.00
7052;BME280;3567;52.444;13.556;2022-08-19T08:36:45;100603.13;;;23.57;100.00
7052;BME280;3567;52.444;13.556;2022-08-19T08:39:13;100607.69;;;23.70;100.00
7052;BME280;3567;52.444;13.556;2022-08-19T08:41:59;100608.34;;;23.67;100.00
7052;BME280;3567;52.444;13.556;2022-08-19T08:44:46;100602.88;;;23.67;100.00
7052;BME280;3567;52.444;13.556;2022-08-19T08:47:18;100606.59;;;23.71;100.00
7052;BME280;3567;52.444;13.556;2022-08-19T08:49:51;100605.94;;;23.65;100.00
7052;BME280;3567;52.444;13.556;2022-08-19T08:54:48;100594.66;;;23.67;100.00
7052;BME280;3567;52.444;13.556;2022-08-19T08:57:20;100604.50;;;23.76;100.00
7052;BME280;3567;52.444;13.556;2022-08-19T08:59:50;100600.63;;;23.86;100.00
7052;BME280;3567;52.444;13.556;2022-08-19T09:02:19;100616.09;;;23.99;100.00
7052;BME280;3567;52.444;13.556;2022-08-19T09:04:44;100619.16;;;24.15;100.00
7052;BME280;3567;52.444;13.556;2022-08-19T09:15:46;100620.59;;;24.47;99.63
7052;BME280;3567;52.444;13.556;2022-08-19T09:18:14;100626.56;;;24.41;98.91
7052;BME280;3567;52.444;13.556;2022-08-19T09:20:40;100621.53;;;24.34;99.05
7052;BME280;3567;52.444;13.556;2022-08-19T09:23:05;100615.13;;;24.30;99.06
7052;BME280;3567;52.444;13.556;2022-08-19T09:25:31;100613.00;;;24.27;98.91
7052;BME280;3567;52.444;13.556;2022-08-19T09:27:57;100609.81;;;24.25;98.70
7052;BME280;3567;52.444;13.556;2022-08-19T09:30:32;100608.03;;;24.29;99.26
7052;BME280;3567;52.444;13.556;2022-08-19T09:32:58;100598.69;;;24.30;99.12
7052;BME280;3567;52.444;13.556;2022-08-19T09:35:26;100609.47;;;24.26;98.62
7052;BME280;3567;52.444;13.556;2022-08-19T09:37:54;100614.78;;;24.23;98.13
7052;BME280;3567;52.444;13.556;2022-08-19T09:40:20;100609.34;;;24.14;97.76
7052;BME280;3567;52.444;13.556;2022-08-19T09:42:46;100611.09;;;24.01;98.28
7052;BME280;3567;52.444;13.556;2022-08-19T09:45:13;100611.41;;;23.91;98.99
7052;BME280;3567;52.444;13.556;2022-08-19T09:47:39;100612.84;;;23.80;98.75
7052;BME280;3567;52.444;13.556;2022-08-19T09:50:07;100603.34;;;23.69;99.67
7052;BME280;3567;52.444;13.556;2022-08-19T09:52:33;100602.19;;;23.61;100.00
7052;BME280;3567;52.444;13.556;2022-08-19T09:54:59;100595.88;;;23.52;100.00
7052;BME280;3567;52.444;13.556;2022-08-19T09:57:25;100590.91;;;23.45;100.00
7052;BME280;3567;52.444;13.556;2022-08-19T09:59:50;100583.69;;;23.49;100.00
7052;BME280;3567;52.444;13.556;2022-08-19T10:02:16;100587.06;;;23.55;100.00
7052;BME280;3567;52.444;13.556;2022-08-19T10:04:41;100582.88;;;23.58;100.00
7052;BME280;3567;52.444;13.556;2022-08-19T10:07:25;100579.66;;;23.56;100.00
7052;BME280;3567;52.444;13.556;2022-08-19T10:09:50;100586.09;;;23.60;100.00
7052;BME280;3567;52.444;13.556;2022-08-19T10:12:16;100577.13;;;23.68;100.00
7052;BME280;3567;52.444;13.556;2022-08-19T10:14:41;100589.19;;;23.75;100.00
7052;BME280;3567;52.444;13.556;2022-08-19T10:17:07;100579.69;;;23.90;100.00
7052;BME280;3567;52.444;13.556;2022-08-19T10:19:32;100586.28;;;24.07;98.87
7052;BME280;3567;52.444;13.556;2022-08-19T10:22:05;100584.50;;;24.28;98.01
7052;BME280;3567;52.444;13.556;2022-08-19T10:24:31;100595.81;;;24.35;96.71
7052;BME280;3567;52.444;13.556;2022-08-19T10:26:57;100602.69;;;24.33;96.58
7052;BME280;3567;52.444;13.556;2022-08-19T10:29:24;100591.44;;;24.25;96.21
7052;BME280;3567;52.444;13.556;2022-08-19T10:31:49;100589.22;;;24.19;96.85
7052;BME280;3567;52.444;13.556;2022-08-19T10:34:15;100590.00;;;24.11;97.30
7052;BME280;3567;52.444;13.556;2022-08-19T10:36:41;100588.56;;;24.04;97.63
7052;BME280;3567;52.444;13.556;2022-08-19T10:39:09;100587.44;;;24.05;97.13
7052;BME280;3567;52.444;13.556;2022-08-19T10:41:37;100584.06;;;24.09;97.21
7052;BME280;3567;52.444;13.556;2022-08-19T10:44:06;100582.09;;;24.18;97.03
7052;BME280;3567;52.444;13.556;2022-08-19T10:46:35;100577.25;;;24.32;96.41
7052;BME280;3567;52.444;13.556;2022-08-19T10:49:02;100579.84;;;24.46;96.46
7052;BME280;3567;52.444;13.556;2022-08-19T10:51:28;100582.44;;;24.51;95.78
7052;BME280;3567;52.444;13.556;2022-08-19T10:54:13;100575.81;;;24.52;95.90
7052;BME280;3567;52.444;13.556;2022-08-19T10:56:38;100581.00;;;24.36;94.73
7052;BME280;3567;52.444;13.556;2022-08-19T10:59:28;100586.31;;;24.24;94.93
7052;BME280;3567;52.444;13.556;2022-08-19T11:01:59;100588.72;;;24.17;95.83
7052;BME280;3567;52.444;13.556;2022-08-19T11:04:25;100596.13;;;24.08;95.61
7052;BME280;3567;52.444;13.556;2022-08-19T11:06:51;100596.78;;;24.04;96.18
7052;BME280;3567;52.444;13.556;2022-08-19T11:09:24;100609.00;;;23.98;96.39
7052;BME280;3567;52.444;13.556;2022-08-19T11:11:50;100604.81;;;23.92;96.58
7052;BME280;3567;52.444;13.556;2022-08-19T11:14:19;100595.50;;;23.93;97.17
7052;BME280;3567;52.444;13.556;2022-08-19T11:16:47;100593.22;;;23.95;96.68
7052;BME280;3567;52.444;13.556;2022-08-19T11:19:13;100607.72;;;24.04;97.23
7052;BME280;3567;52.444;13.556;2022-08-19T11:21:43;100613.50;;;24.12;96.62
7052;BME280;3567;52.444;13.556;2022-08-19T11:24:13;100611.59;;;24.03;96.12
7052;BME280;3567;52.444;13.556;2022-08-19T11:26:41;100608.50;;;23.96;96.61
7052;BME280;3567;52.444;13.556;2022-08-19T11:29:08;100602.09;;;23.92;96.90
7052;BME280;3567;52.444;13.556;2022-08-19T11:31:40;100607.22;;;23.94;96.93
7052;BME280;3567;52.444;13.556;2022-08-19T11:34:08;100601.94;;;23.97;96.74
7052;BME280;3567;52.444;13.556;2022-08-19T11:36:37;100604.16;;;24.13;96.62
7052;BME280;3567;52.444;13.556;2022-08-19T11:39:05;100600.47;;;24.26;96.49
7052;BME280;3567;52.444;13.556;2022-08-19T11:41:31;100604.16;;;24.30;95.21
7052;BME280;3567;52.444;13.556;2022-08-19T11:43:56;100610.91;;;24.33;94.81
7052;BME280;3567;52.444;13.556;2022-08-19T11:46:24;100617.38;;;24.37;95.25
7052;BME280;3567;52.444;13.556;2022-08-19T11:48:50;100622.38;;;24.43;95.70
7052;BME280;3567;52.444;13.556;2022-08-19T11:51:19;100620.59;;;24.56;95.14
7052;BME280;3567;52.444;13.556;2022-08-19T11:53:46;100628.47;;;24.66;95.05
7052;BME280;3567;52.444;13.556;2022-08-19T11:56:12;100629.41;;;24.70;93.90
7052;BME280;3567;52.444;13.556;2022-08-19T11:58:38;100635.84;;;24.74;93.91
7052;BME280;3567;52.444;13.556;2022-08-19T12:01:12;100633.09;;;24.74;93.14
7052;BME280;3567;52.444;13.556;2022-08-19T12:03:49;100637.13;;;24.77;92.76
7052;BME280;3567;52.444;13.556;2022-08-19T12:06:30;100637.31;;;24.72;92.48
7052;BME280;3567;52.444;13.556;2022-08-19T12:08:58;100636.47;;;24.71;91.99
7052;BME280;3567;52.444;13.556;2022-08-19T12:11:25;100644.84;;;24.75;92.34
7052;BME280;3567;52.444;13.556;2022-08-19T12:13:51;100640.50;;;24.74;92.54
7052;BME280;3567;52.444;13.556;2022-08-19T12:16:23;100645.53;;;24.72;92.65
7052;BME280;3567;52.444;13.556;2022-08-19T12:18:50;100658.91;;;24.65;92.41
7052;BME280;3567;52.444;13.556;2022-08-19T12:21:23;100645.53;;;24.63;92.75
7052;BME280;3567;52.444;13.556;2022-08-19T12:23:50;100661.34;;;24.58;91.83
7052;BME280;3567;52.444;13.556;2022-08-19T12:26:17;100658.28;;;24.50;92.03
7052;BME280;3567;52.444;13.556;2022-08-19T12:28:43;100652.66;;;24.38;92.67
7052;BME280;3567;52.444;13.556;2022-08-19T12:31:09;100654.72;;;24.24;92.42
7052;BME280;3567;52.444;13.556;2022-08-19T12:33:37;100650.22;;;24.11;92.46
7052;BME280;3567;52.444;13.556;2022-08-19T12:36:06;100655.69;;;24.11;93.66
7052;BME280;3567;52.444;13.556;2022-08-19T12:38:32;100654.53;;;24.12;93.59
7052;BME280;3567;52.444;13.556;2022-08-19T12:40:58;100646.34;;;24.12;93.84
7052;BME280;3567;52.444;13.556;2022-08-19T12:43:24;100650.53;;;24.18;94.21
7052;BME280;3567;52.444;13.556;2022-08-19T12:45:49;100653.16;;;24.40;94.39
7052;BME280;3567;52.444;13.556;2022-08-19T12:48:16;100643.25;;;24.74;93.74
7052;BME280;3567;52.444;13.556;2022-08-19T12:50:43;100642.22;;;24.96;91.75
7052;BME280;3567;52.444;13.556;2022-08-19T12:53:11;100643.53;;;24.98;90.74
7052;BME280;3567;52.444;13.556;2022-08-19T12:55:36;100647.53;;;24.92;90.19
7052;BME280;3567;52.444;13.556;2022-08-19T12:58:02;100648.50;;;24.96;91.07
7052;BME280;3567;52.444;13.556;2022-08-19T13:00:28;100649.94;;;25.02;91.25
7052;BME280;3567;52.444;13.556;2022-08-19T13:02:54;100653.03;;;25.10;91.27
7052;BME280;3567;52.444;13.556;2022-08-19T13:05:23;100652.22;;;25.09;90.10
7052;BME280;3567;52.444;13.556;2022-08-19T13:07:51;100663.28;;;25.21;90.29
7052;BME280;3567;52.444;13.556;2022-08-19T13:10:19;100666.47;;;25.32;90.10